sensor_id;sensor_type;location;lat;lon;timestamp;P1;durP1;ratioP1;P2;durP2;ratioP2
17404;SDS011;8820;54.604;18.226;2022-12-29T00:00:35;11.00;;;9.77;;
17404;SDS011;8820;54.604;18.226;2022-12-29T00:03:05;11.57;;;9.20;;
17404;SDS011;8820;54.604;18.226;2022-12-29T00:05:34;12.03;;;8.50;;
17404;SDS011;8820;54.604;18.226;2022-12-29T00:08:03;11.50;;;8.30;;
17404;SDS011;8820;54.604;18.226;2022-12-29T00:10:32;12.37;;;8.30;;
17404;SDS011;8820;54.604;18.226;2022-12-29T00:13:01;9.23;;;8.33;;
17404;SDS011;8820;54.604;18.226;2022-12-29T00:15:48;10.13;;;7.83;;
17404;SDS011;8820;54.604;18.226;2022-12-29T00:18:18;9.13;;;8.03;;
17404;SDS011;8820;54.604;18.226;2022-12-29T00:20:47;10.03;;;8.40;;
17404;SDS011;8820;54.604;18.226;2022-12-29T00:23:33;10.27;;;7.47;;
17404;SDS011;8820;54.604;18.226;2022-12-29T00:26:21;9.23;;;7.23;;
17404;SDS011;8820;54.604;18.226;2022-12-29T00:29:22;7.87;;;7.00;;
17404;SDS011;8820;54.604;18.226;2022-12-29T00:32:23;6.67;;;6.03;;
17404;SDS011;8820;54.604;18.226;2022-12-29T00:35:11;7.00;;;6.17;;
17404;SDS011;8820;54.604;18.226;2022-12-29T00:37:46;6.13;;;5.53;;
17404;SDS011;8820;54.604;18.226;2022-12-29T00:40:33;8.50;;;6.20;;
17404;SDS011;8820;54.604;18.226;2022-12-29T00:43:20;5.97;;;5.47;;
17404;SDS011;8820;54.604;18.226;2022-12-29T00:46:06;5.53;;;5.03;;
17404;SDS011;8820;54.604;18.226;2022-12-29T00:48:39;5.30;;;4.80;;
17404;SDS011;8820;54.604;18.226;2022-12-29T00:51:27;6.97;;;5.10;;
17404;SDS011;8820;54.604;18.226;2022-12-29T00:53:57;6.73;;;4.73;;
17404;SDS011;8820;54.604;18.226;2022-12-29T00:56:26;5.07;;;4.40;;
17404;SDS011;8820;54.604;18.226;2022-12-29T00:58:55;6.07;;;4.60;;
17404;SDS011;8820;54.604;18.226;2022-12-29T01:01:27;5.17;;;4.67;;
17404;SDS011;8820;54.604;18.226;2022-12-29T01:03:56;6.03;;;4.17;;
17404;SDS011;8820;54.604;18.226;2022-12-29T01:06:31;4.57;;;4.27;;
17404;SDS011;8820;54.604;18.226;2022-12-29T01:09:00;4.50;;;4.07;;
17404;SDS011;8820;54.604;18.226;2022-12-29T01:11:46;3.70;;;3.40;;
17404;SDS011;8820;54.604;18.226;2022-12-29T01:14:16;5.23;;;4.40;;
17404;SDS011;8820;54.604;18.226;2022-12-29T01:16:46;3.97;;;3.67;;
17404;SDS011;8820;54.604;18.226;2022-12-29T01:19:16;4.20;;;3.80;;
17404;SDS011;8820;54.604;18.226;2022-12-29T01:21:47;3.90;;;3.63;;
17404;SDS011;8820;54.604;18.226;2022-12-29T01:24:18;4.50;;;4.10;;
17404;SDS011;8820;54.604;18.226;2022-12-29T01:26:48;4.20;;;3.90;;
17404;SDS011;8820;54.604;18.226;2022-12-29T01:29:17;4.33;;;4.03;;
17404;SDS011;8820;54.604;18.226;2022-12-29T01:31:46;4.23;;;3.90;;
17404;SDS011;8820;54.604;18.226;2022-12-29T01:34:16;4.27;;;3.90;;
17404;SDS011;8820;54.604;18.226;2022-12-29T01:36:46;5.00;;;4.30;;
17404;SDS011;8820;54.604;18.226;2022-12-29T01:39:15;3.80;;;3.50;;
17404;SDS011;8820;54.604;18.226;2022-12-29T01:41:44;4.50;;;4.10;;
17404;SDS011;8820;54.604;18.226;2022-12-29T01:47:16;3.97;;;3.67;;
17404;SDS011;8820;54.604;18.226;2022-12-29T01:49:51;3.33;;;3.03;;
17404;SDS011;8820;54.604;18.226;2022-12-29T01:52:24;3.00;;;2.90;;
17404;SDS011;8820;54.604;18.226;2022-12-29T01:54:58;3.43;;;3.13;;
17404;SDS011;8820;54.604;18.226;2022-12-29T01:57:28;3.10;;;2.80;;
17404;SDS011;8820;54.604;18.226;2022-12-29T02:00:00;3.07;;;2.87;;
17404;SDS011;8820;54.604;18.226;2022-12-29T02:02:38;8.73;;;6.50;;
17404;SDS011;8820;54.604;18.226;2022-12-29T02:05:09;3.03;;;2.80;;
17404;SDS011;8820;54.604;18.226;2022-12-29T02:07:45;3.50;;;3.20;;
17404;SDS011;8820;54.604;18.226;2022-12-29T02:10:16;3.00;;;2.80;;
17404;SDS011;8820;54.604;18.226;2022-12-29T02:12:48;3.40;;;2.80;;
17404;SDS011;8820;54.604;18.226;2022-12-29T02:15:17;3.13;;;2.90;;
17404;SDS011;8820;54.604;18.226;2022-12-29T02:17:56;3.40;;;2.90;;
17404;SDS011;8820;54.604;18.226;2022-12-29T02:20:41;2.90;;;2.70;;
17404;SDS011;8820;54.604;18.226;2022-12-29T02:23:44;3.27;;;3.07;;
17404;SDS011;8820;54.604;18.226;2022-12-29T02:26:30;3.10;;;2.90;;
17404;SDS011;8820;54.604;18.226;2022-12-29T02:29:27;3.00;;;2.80;;
17404;SDS011;8820;54.604;18.226;2022-12-29T02:32:15;2.80;;;2.60;;
17404;SDS011;8820;54.604;18.226;2022-12-29T02:34:56;3.90;;;3.60;;
17404;SDS011;8820;54.604;18.226;2022-12-29T02:37:35;3.67;;;3.37;;
17404;SDS011;8820;54.604;18.226;2022-12-29T02:40:13;3.83;;;3.53;;
17404;SDS011;8820;54.604;18.226;2022-12-29T02:42:48;3.63;;;3.13;;
17404;SDS011;8820;54.604;18.226;2022-12-29T02:45:20;3.40;;;3.17;;
17404;SDS011;8820;54.604;18.226;2022-12-29T02:47:57;3.30;;;3.10;;
17404;SDS011;8820;54.604;18.226;2022-12-29T02:50:32;3.63;;;3.43;;
17404;SDS011;8820;54.604;18.226;2022-12-29T02:53:06;3.43;;;3.23;;
17404;SDS011;8820;54.604;18.226;2022-12-29T02:55:39;4.73;;;3.00;;
17404;SDS011;8820;54.604;18.226;2022-12-29T02:58:15;4.87;;;3.53;;
17404;SDS011;8820;54.604;18.226;2022-12-29T03:00:52;3.30;;;3.10;;
17404;SDS011;8820;54.604;18.226;2022-12-29T03:03:40;3.43;;;3.23;;
17404;SDS011;8820;54.604;18.226;2022-12-29T03:06:21;2.97;;;2.77;;
17404;SDS011;8820;54.604;18.226;2022-12-29T03:09:01;5.83;;;3.13;;
17404;SDS011;8820;54.604;18.226;2022-12-29T03:11:45;3.47;;;3.13;;
17404;SDS011;8820;54.604;18.226;2022-12-29T03:14:40;3.83;;;2.83;;
17404;SDS011;8820;54.604;18.226;2022-12-29T03:17:39;4.03;;;3.57;;
17404;SDS011;8820;54.604;18.226;2022-12-29T03:20:17;6.03;;;3.77;;
17404;SDS011;8820;54.604;18.226;2022-12-29T03:22:55;3.40;;;3.03;;
17404;SDS011;8820;54.604;18.226;2022-12-29T03:25:31;3.30;;;3.10;;
17404;SDS011;8820;54.604;18.226;2022-12-29T03:28:06;3.10;;;2.90;;
17404;SDS011;8820;54.604;18.226;2022-12-29T03:30:42;2.70;;;2.50;;
17404;SDS011;8820;54.604;18.226;2022-12-29T03:33:17;2.57;;;2.43;;
17404;SDS011;8820;54.604;18.226;2022-12-29T03:35:52;2.40;;;2.30;;
17404;SDS011;8820;54.604;18.226;2022-12-29T03:38:30;3.07;;;2.73;;
17404;SDS011;8820;54.604;18.226;2022-12-29T03:41:04;2.73;;;2.53;;
17404;SDS011;8820;54.604;18.226;2022-12-29T03:43:36;3.00;;;2.77;;
17404;SDS011;8820;54.604;18.226;2022-12-29T03:46:06;3.10;;;2.90;;
17404;SDS011;8820;54.604;18.226;2022-12-29T03:48:37;3.30;;;3.10;;
17404;SDS011;8820;54.604;18.226;2022-12-29T03:51:09;3.37;;;3.17;;
17404;SDS011;8820;54.604;18.226;2022-12-29T03:53:38;3.73;;;3.43;;
17404;SDS011;8820;54.604;18.226;2022-12-29T03:56:07;3.57;;;3.30;;
17404;SDS011;8820;54.604;18.226;2022-12-29T03:58:36;4.30;;;3.57;;
17404;SDS011;8820;54.604;18.226;2022-12-29T04:01:13;3.60;;;3.40;;
17404;SDS011;8820;54.604;18.226;2022-12-29T04:03:42;3.70;;;3.40;;
17404;SDS011;8820;54.604;18.226;2022-12-29T04:06:13;3.40;;;3.20;;
17404;SDS011;8820;54.604;18.226;2022-12-29T04:08:49;4.53;;;4.13;;
17404;SDS011;8820;54.604;18.226;2022-12-29T04:11:18;4.87;;;4.27;;
17404;SDS011;8820;54.604;18.226;2022-12-29T04:13:47;4.23;;;3.93;;
17404;SDS011;8820;54.604;18.226;2022-12-29T04:16:19;4.47;;;4.07;;
17404;SDS011;8820;54.604;18.226;2022-12-29T04:18:49;4.70;;;4.30;;
17404;SDS011;8820;54.604;18.226;2022-12-29T04:21:19;4.00;;;3.70;;
17404;SDS011;8820;54.604;18.226;2022-12-29T04:23:48;4.37;;;4.07;;
17404;SDS011;8820;54.604;18.226;2022-12-29T04:26:17;3.90;;;3.63;;
17404;SDS011;8820;54.604;18.226;2022-12-29T04:29:12;6.17;;;4.67;;
17404;SDS011;8820;54.604;18.226;2022-12-29T04:31:50;5.03;;;4.60;;
17404;SDS011;8820;54.604;18.226;2022-12-29T04:34:19;5.80;;;5.30;;
17404;SDS011;8820;54.604;18.226;2022-12-29T04:36:49;5.93;;;5.33;;
17404;SDS011;8820;54.604;18.226;2022-12-29T04:39:18;5.70;;;5.20;;
17404;SDS011;8820;54.604;18.226;2022-12-29T04:41:47;6.80;;;6.20;;
17404;SDS011;8820;54.604;18.226;2022-12-29T04:44:19;6.30;;;5.73;;
17404;SDS011;8820;54.604;18.226;2022-12-29T04:47:08;7.07;;;6.37;;
17404;SDS011;8820;54.604;18.226;2022-12-29T04:49:50;7.03;;;6.43;;
17404;SDS011;8820;54.604;18.226;2022-12-29T04:52:49;11.70;;;7.77;;
17404;SDS011;8820;54.604;18.226;2022-12-29T04:55:18;9.63;;;8.17;;
17404;SDS011;8820;54.604;18.226;2022-12-29T04:57:48;13.03;;;8.53;;
17404;SDS011;8820;54.604;18.226;2022-12-29T05:00:19;9.47;;;8.47;;
17404;SDS011;8820;54.604;18.226;2022-12-29T05:02:48;10.27;;;8.40;;
17404;SDS011;8820;54.604;18.226;2022-12-29T05:05:17;10.10;;;8.00;;
17404;SDS011;8820;54.604;18.226;2022-12-29T05:07:50;10.13;;;8.30;;
17404;SDS011;8820;54.604;18.226;2022-12-29T05:10:19;9.27;;;8.37;;
17404;SDS011;8820;54.604;18.226;2022-12-29T05:12:51;10.17;;;8.40;;
17404;SDS011;8820;54.604;18.226;2022-12-29T05:15:20;9.63;;;8.67;;
17404;SDS011;8820;54.604;18.226;2022-12-29T05:17:49;14.43;;;9.70;;
17404;SDS011;8820;54.604;18.226;2022-12-29T05:20:18;12.73;;;9.73;;
17404;SDS011;8820;54.604;18.226;2022-12-29T05:22:47;14.67;;;10.63;;
17404;SDS011;8820;54.604;18.226;2022-12-29T05:25:18;13.20;;;9.10;;
17404;SDS011;8820;54.604;18.226;2022-12-29T05:27:54;10.97;;;8.77;;
17404;SDS011;8820;54.604;18.226;2022-12-29T05:30:43;11.17;;;9.27;;
17404;SDS011;8820;54.604;18.226;2022-12-29T05:33:16;9.37;;;8.33;;
17404;SDS011;8820;54.604;18.226;2022-12-29T05:35:47;12.27;;;9.60;;
17404;SDS011;8820;54.604;18.226;2022-12-29T05:38:22;11.17;;;10.07;;
17404;SDS011;8820;54.604;18.226;2022-12-29T05:40:51;11.30;;;10.03;;
17404;SDS011;8820;54.604;18.226;2022-12-29T05:43:38;12.33;;;9.93;;
17404;SDS011;8820;54.604;18.226;2022-12-29T05:46:27;16.07;;;10.93;;
17404;SDS011;8820;54.604;18.226;2022-12-29T05:49:18;14.67;;;10.27;;
17404;SDS011;8820;54.604;18.226;2022-12-29T05:52:02;11.77;;;10.50;;
17404;SDS011;8820;54.604;18.226;2022-12-29T05:54:34;11.87;;;10.57;;
17404;SDS011;8820;54.604;18.226;2022-12-29T05:57:09;12.83;;;10.40;;
17404;SDS011;8820;54.604;18.226;2022-12-29T05:59:40;12.13;;;10.80;;
17404;SDS011;8820;54.604;18.226;2022-12-29T06:02:09;15.27;;;11.97;;
17404;SDS011;8820;54.604;18.226;2022-12-29T06:04:39;16.07;;;11.33;;
17404;SDS011;8820;54.604;18.226;2022-12-29T06:07:07;12.50;;;11.10;;
17404;SDS011;8820;54.604;18.226;2022-12-29T06:09:42;15.63;;;12.03;;
17404;SDS011;8820;54.604;18.226;2022-12-29T06:12:12;16.93;;;12.80;;
17404;SDS011;8820;54.604;18.226;2022-12-29T06:14:44;15.80;;;11.57;;
17404;SDS011;8820;54.604;18.226;2022-12-29T06:17:13;15.33;;;11.17;;
17404;SDS011;8820;54.604;18.226;2022-12-29T06:19:44;14.77;;;11.57;;
17404;SDS011;8820;54.604;18.226;2022-12-29T06:22:13;12.77;;;10.87;;
17404;SDS011;8820;54.604;18.226;2022-12-29T06:24:43;12.90;;;10.07;;
17404;SDS011;8820;54.604;18.226;2022-12-29T06:27:13;17.13;;;12.60;;
17404;SDS011;8820;54.604;18.226;2022-12-29T06:29:42;14.07;;;10.67;;
17404;SDS011;8820;54.604;18.226;2022-12-29T06:32:10;15.87;;;12.60;;
17404;SDS011;8820;54.604;18.226;2022-12-29T06:34:45;16.90;;;11.90;;
17404;SDS011;8820;54.604;18.226;2022-12-29T06:37:14;15.63;;;12.00;;
17404;SDS011;8820;54.604;18.226;2022-12-29T06:39:44;13.23;;;11.03;;
17404;SDS011;8820;54.604;18.226;2022-12-29T06:42:14;13.20;;;10.87;;
17404;SDS011;8820;54.604;18.226;2022-12-29T06:44:49;11.80;;;10.27;;
17404;SDS011;8820;54.604;18.226;2022-12-29T06:47:19;12.93;;;10.63;;
17404;SDS011;8820;54.604;18.226;2022-12-29T06:49:47;11.53;;;10.30;;
17404;SDS011;8820;54.604;18.226;2022-12-29T06:52:16;14.40;;;11.43;;
17404;SDS011;8820;54.604;18.226;2022-12-29T06:54:47;14.30;;;10.97;;
17404;SDS011;8820;54.604;18.226;2022-12-29T06:57:16;12.27;;;10.07;;
17404;SDS011;8820;54.604;18.226;2022-12-29T06:59:44;12.00;;;10.60;;
17404;SDS011;8820;54.604;18.226;2022-12-29T07:02:13;15.07;;;10.73;;
17404;SDS011;8820;54.604;18.226;2022-12-29T07:04:45;12.30;;;10.20;;
17404;SDS011;8820;54.604;18.226;2022-12-29T07:07:13;12.50;;;10.43;;
17404;SDS011;8820;54.604;18.226;2022-12-29T07:09:42;14.10;;;10.57;;
17404;SDS011;8820;54.604;18.226;2022-12-29T07:12:13;15.97;;;11.23;;
17404;SDS011;8820;54.604;18.226;2022-12-29T07:14:42;12.57;;;10.37;;
17404;SDS011;8820;54.604;18.226;2022-12-29T07:17:10;13.53;;;10.20;;
17404;SDS011;8820;54.604;18.226;2022-12-29T07:19:39;10.90;;;9.80;;
17404;SDS011;8820;54.604;18.226;2022-12-29T07:22:09;14.57;;;9.93;;
17404;SDS011;8820;54.604;18.226;2022-12-29T07:24:38;16.17;;;10.40;;
17404;SDS011;8820;54.604;18.226;2022-12-29T07:27:07;13.40;;;10.10;;
17404;SDS011;8820;54.604;18.226;2022-12-29T07:29:37;14.33;;;10.30;;
17404;SDS011;8820;54.604;18.226;2022-12-29T07:32:06;12.50;;;9.57;;
17404;SDS011;8820;54.604;18.226;2022-12-29T07:34:35;12.53;;;10.10;;
17404;SDS011;8820;54.604;18.226;2022-12-29T07:37:06;13.53;;;10.43;;
17404;SDS011;8820;54.604;18.226;2022-12-29T07:39:35;12.53;;;9.73;;
17404;SDS011;8820;54.604;18.226;2022-12-29T07:42:04;10.07;;;8.90;;
17404;SDS011;8820;54.604;18.226;2022-12-29T07:44:45;10.07;;;9.07;;
17404;SDS011;8820;54.604;18.226;2022-12-29T07:47:25;16.67;;;9.47;;
17404;SDS011;8820;54.604;18.226;2022-12-29T07:49:54;18.07;;;13.03;;
17404;SDS011;8820;54.604;18.226;2022-12-29T07:52:23;12.77;;;10.67;;
17404;SDS011;8820;54.604;18.226;2022-12-29T07:54:52;12.40;;;10.37;;
17404;SDS011;8820;54.604;18.226;2022-12-29T07:57:21;10.77;;;9.50;;
17404;SDS011;8820;54.604;18.226;2022-12-29T07:59:58;11.73;;;9.63;;
17404;SDS011;8820;54.604;18.226;2022-12-29T08:02:37;10.33;;;9.17;;
17404;SDS011;8820;54.604;18.226;2022-12-29T08:05:06;30.87;;;20.73;;
17404;SDS011;8820;54.604;18.226;2022-12-29T08:07:35;14.03;;;10.60;;
17404;SDS011;8820;54.604;18.226;2022-12-29T08:10:05;32.93;;;21.43;;
17404;SDS011;8820;54.604;18.226;2022-12-29T08:12:34;11.70;;;9.70;;
17404;SDS011;8820;54.604;18.226;2022-12-29T08:15:05;15.37;;;10.27;;
17404;SDS011;8820;54.604;18.226;2022-12-29T08:17:36;13.77;;;9.30;;
17404;SDS011;8820;54.604;18.226;2022-12-29T08:20:05;10.67;;;9.47;;
17404;SDS011;8820;54.604;18.226;2022-12-29T08:22:34;10.50;;;8.13;;
17404;SDS011;8820;54.604;18.226;2022-12-29T08:25:04;13.00;;;8.17;;
17404;SDS011;8820;54.604;18.226;2022-12-29T08:27:33;10.17;;;9.00;;
17404;SDS011;8820;54.604;18.226;2022-12-29T08:30:02;11.47;;;8.40;;
17404;SDS011;8820;54.604;18.226;2022-12-29T08:32:33;11.27;;;8.67;;
17404;SDS011;8820;54.604;18.226;2022-12-29T08:35:02;11.63;;;10.07;;
17404;SDS011;8820;54.604;18.226;2022-12-29T08:37:31;15.53;;;12.17;;
17404;SDS011;8820;54.604;18.226;2022-12-29T08:40:01;13.73;;;12.27;;
17404;SDS011;8820;54.604;18.226;2022-12-29T08:42:30;14.40;;;12.13;;
17404;SDS011;8820;54.604;18.226;2022-12-29T08:44:59;13.43;;;10.63;;
17404;SDS011;8820;54.604;18.226;2022-12-29T08:47:30;11.20;;;8.67;;
17404;SDS011;8820;54.604;18.226;2022-12-29T08:49:59;10.23;;;7.80;;
17404;SDS011;8820;54.604;18.226;2022-12-29T08:52:28;10.13;;;9.00;;
17404;SDS011;8820;54.604;18.226;2022-12-29T08:54:57;13.27;;;9.40;;
17404;SDS011;8820;54.604;18.226;2022-12-29T08:57:26;8.67;;;7.83;;
17404;SDS011;8820;54.604;18.226;2022-12-29T09:00:12;8.83;;;7.93;;
17404;SDS011;8820;54.604;18.226;2022-12-29T09:02:44;8.40;;;7.50;;
17404;SDS011;8820;54.604;18.226;2022-12-29T09:05:13;9.23;;;8.20;;
17404;SDS011;8820;54.604;18.226;2022-12-29T09:07:42;12.70;;;8.50;;
17404;SDS011;8820;54.604;18.226;2022-12-29T09:10:11;10.43;;;8.13;;
17404;SDS011;8820;54.604;18.226;2022-12-29T09:12:40;10.37;;;8.07;;
17404;SDS011;8820;54.604;18.226;2022-12-29T09:15:09;9.60;;;7.27;;
17404;SDS011;8820;54.604;18.226;2022-12-29T09:17:38;9.63;;;8.00;;
17404;SDS011;8820;54.604;18.226;2022-12-29T09:20:14;8.63;;;7.63;;
17404;SDS011;8820;54.604;18.226;2022-12-29T09:22:44;8.37;;;7.57;;
17404;SDS011;8820;54.604;18.226;2022-12-29T09:25:13;12.20;;;8.20;;
17404;SDS011;8820;54.604;18.226;2022-12-29T09:27:43;8.40;;;7.60;;
17404;SDS011;8820;54.604;18.226;2022-12-29T09:30:12;9.03;;;7.90;;
17404;SDS011;8820;54.604;18.226;2022-12-29T09:32:41;8.30;;;7.53;;
17404;SDS011;8820;54.604;18.226;2022-12-29T09:35:13;11.50;;;8.80;;
17404;SDS011;8820;54.604;18.226;2022-12-29T09:37:43;9.43;;;7.70;;
17404;SDS011;8820;54.604;18.226;2022-12-29T09:40:18;8.33;;;7.53;;
17404;SDS011;8820;54.604;18.226;2022-12-29T09:42:55;8.90;;;8.00;;
17404;SDS011;8820;54.604;18.226;2022-12-29T09:45:36;9.73;;;8.37;;
17404;SDS011;8820;54.604;18.226;2022-12-29T09:48:11;11.33;;;7.80;;
17404;SDS011;8820;54.604;18.226;2022-12-29T09:50:47;9.70;;;8.00;;
17404;SDS011;8820;54.604;18.226;2022-12-29T09:53:21;10.87;;;8.20;;
17404;SDS011;8820;54.604;18.226;2022-12-29T09:55:55;12.00;;;8.53;;
17404;SDS011;8820;54.604;18.226;2022-12-29T09:58:26;10.63;;;8.40;;
17404;SDS011;8820;54.604;18.226;2022-12-29T10:01:00;11.30;;;7.83;;
17404;SDS011;8820;54.604;18.226;2022-12-29T10:03:35;27.10;;;19.53;;
17404;SDS011;8820;54.604;18.226;2022-12-29T10:06:13;23.80;;;17.40;;
17404;SDS011;8820;54.604;18.226;2022-12-29T10:08:47;12.47;;;10.00;;
17404;SDS011;8820;54.604;18.226;2022-12-29T10:11:24;12.90;;;10.33;;
17404;SDS011;8820;54.604;18.226;2022-12-29T10:14:06;12.73;;;7.87;;
17404;SDS011;8820;54.604;18.226;2022-12-29T10:16:48;15.43;;;11.23;;
17404;SDS011;8820;54.604;18.226;2022-12-29T10:19:37;14.47;;;10.13;;
17404;SDS011;8820;54.604;18.226;2022-12-29T10:22:20;24.43;;;17.27;;
17404;SDS011;8820;54.604;18.226;2022-12-29T10:24:59;42.23;;;26.93;;
17404;SDS011;8820;54.604;18.226;2022-12-29T10:27:30;11.27;;;8.60;;
17404;SDS011;8820;54.604;18.226;2022-12-29T10:30:01;9.27;;;7.87;;
17404;SDS011;8820;54.604;18.226;2022-12-29T10:32:32;8.63;;;7.47;;
17404;SDS011;8820;54.604;18.226;2022-12-29T10:35:05;6.90;;;6.30;;
17404;SDS011;8820;54.604;18.226;2022-12-29T10:37:43;13.05;;;9.15;;
17404;SDS011;8820;54.604;18.226;2022-12-29T10:40:22;10.60;;;8.00;;
17404;SDS011;8820;54.604;18.226;2022-12-29T10:42:54;11.07;;;9.07;;
17404;SDS011;8820;54.604;18.226;2022-12-29T10:45:26;8.23;;;6.40;;
17404;SDS011;8820;54.604;18.226;2022-12-29T10:47:59;7.70;;;6.90;;
17404;SDS011;8820;54.604;18.226;2022-12-29T10:50:31;7.70;;;6.70;;
17404;SDS011;8820;54.604;18.226;2022-12-29T10:53:04;7.27;;;6.20;;
17404;SDS011;8820;54.604;18.226;2022-12-29T10:55:33;7.37;;;6.10;;
17404;SDS011;8820;54.604;18.226;2022-12-29T10:58:04;9.13;;;6.93;;
17404;SDS011;8820;54.604;18.226;2022-12-29T11:00:36;8.37;;;6.13;;
17404;SDS011;8820;54.604;18.226;2022-12-29T11:03:19;9.20;;;6.53;;
17404;SDS011;8820;54.604;18.226;2022-12-29T11:06:16;7.73;;;6.80;;
17404;SDS011;8820;54.604;18.226;2022-12-29T11:08:52;8.40;;;6.07;;
17404;SDS011;8820;54.604;18.226;2022-12-29T11:11:24;7.90;;;6.47;;
17404;SDS011;8820;54.604;18.226;2022-12-29T11:13:57;7.13;;;6.40;;
17404;SDS011;8820;54.604;18.226;2022-12-29T11:16:27;11.07;;;7.13;;
17404;SDS011;8820;54.604;18.226;2022-12-29T11:18:58;8.03;;;7.23;;
17404;SDS011;8820;54.604;18.226;2022-12-29T11:21:31;12.73;;;8.83;;
17404;SDS011;8820;54.604;18.226;2022-12-29T11:24:17;9.53;;;7.23;;
17404;SDS011;8820;54.604;18.226;2022-12-29T11:26:49;9.53;;;7.80;;
17404;SDS011;8820;54.604;18.226;2022-12-29T11:29:24;27.93;;;19.53;;
17404;SDS011;8820;54.604;18.226;2022-12-29T11:31:56;11.27;;;7.47;;
17404;SDS011;8820;54.604;18.226;2022-12-29T11:34:30;8.97;;;7.23;;
17404;SDS011;8820;54.604;18.226;2022-12-29T11:37:02;7.40;;;6.70;;
17404;SDS011;8820;54.604;18.226;2022-12-29T11:39:36;8.80;;;7.10;;
17404;SDS011;8820;54.604;18.226;2022-12-29T11:42:12;10.30;;;7.60;;
17404;SDS011;8820;54.604;18.226;2022-12-29T11:44:44;9.07;;;6.50;;
17404;SDS011;8820;54.604;18.226;2022-12-29T11:47:21;7.27;;;6.53;;
17404;SDS011;8820;54.604;18.226;2022-12-29T11:49:54;8.47;;;6.77;;
17404;SDS011;8820;54.604;18.226;2022-12-29T11:52:25;8.70;;;7.17;;
17404;SDS011;8820;54.604;18.226;2022-12-29T11:54:59;7.83;;;7.03;;
17404;SDS011;8820;54.604;18.226;2022-12-29T11:57:30;10.83;;;7.97;;
17404;SDS011;8820;54.604;18.226;2022-12-29T12:00:03;8.47;;;7.20;;
17404;SDS011;8820;54.604;18.226;2022-12-29T12:02:48;13.00;;;10.03;;
17404;SDS011;8820;54.604;18.226;2022-12-29T12:05:24;45.03;;;25.57;;
17404;SDS011;8820;54.604;18.226;2022-12-29T12:08:06;16.20;;;8.97;;
17404;SDS011;8820;54.604;18.226;2022-12-29T12:10:48;7.57;;;6.10;;
17404;SDS011;8820;54.604;18.226;2022-12-29T12:13:25;8.70;;;6.67;;
17404;SDS011;8820;54.604;18.226;2022-12-29T12:16:02;7.37;;;5.50;;
17404;SDS011;8820;54.604;18.226;2022-12-29T12:18:38;9.67;;;6.93;;
17404;SDS011;8820;54.604;18.226;2022-12-29T12:21:13;7.70;;;5.83;;
17404;SDS011;8820;54.604;18.226;2022-12-29T12:24:02;10.23;;;5.53;;
17404;SDS011;8820;54.604;18.226;2022-12-29T12:26:45;5.83;;;4.97;;
17404;SDS011;8820;54.604;18.226;2022-12-29T12:29:24;6.73;;;4.67;;
17404;SDS011;8820;54.604;18.226;2022-12-29T12:31:57;7.13;;;5.30;;
17404;SDS011;8820;54.604;18.226;2022-12-29T12:34:30;6.10;;;5.50;;
17404;SDS011;8820;54.604;18.226;2022-12-29T12:37:21;7.77;;;5.67;;
17404;SDS011;8820;54.604;18.226;2022-12-29T12:40:21;6.60;;;5.17;;
17404;SDS011;8820;54.604;18.226;2022-12-29T12:43:08;5.87;;;5.13;;
17404;SDS011;8820;54.604;18.226;2022-12-29T12:45:50;8.27;;;5.60;;
17404;SDS011;8820;54.604;18.226;2022-12-29T12:48:34;5.77;;;5.07;;
17404;SDS011;8820;54.604;18.226;2022-12-29T12:51:16;7.30;;;5.10;;
17404;SDS011;8820;54.604;18.226;2022-12-29T12:54:02;5.20;;;4.70;;
17404;SDS011;8820;54.604;18.226;2022-12-29T12:56:52;5.20;;;4.70;;
17404;SDS011;8820;54.604;18.226;2022-12-29T12:59:41;6.27;;;5.57;;
17404;SDS011;8820;54.604;18.226;2022-12-29T13:02:22;7.90;;;4.87;;
17404;SDS011;8820;54.604;18.226;2022-12-29T13:08:04;6.43;;;5.27;;
17404;SDS011;8820;54.604;18.226;2022-12-29T13:11:02;5.57;;;4.93;;
17404;SDS011;8820;54.604;18.226;2022-12-29T13:13:59;5.77;;;5.27;;
17404;SDS011;8820;54.604;18.226;2022-12-29T13:16:40;7.70;;;5.00;;
17404;SDS011;8820;54.604;18.226;2022-12-29T13:19:16;7.30;;;5.63;;
17404;SDS011;8820;54.604;18.226;2022-12-29T13:21:55;7.60;;;4.67;;
17404;SDS011;8820;54.604;18.226;2022-12-29T13:24:34;6.77;;;4.93;;
17404;SDS011;8820;54.604;18.226;2022-12-29T13:27:16;5.13;;;4.63;;
17404;SDS011;8820;54.604;18.226;2022-12-29T13:29:50;5.07;;;4.40;;
17404;SDS011;8820;54.604;18.226;2022-12-29T13:32:30;6.73;;;5.13;;
17404;SDS011;8820;54.604;18.226;2022-12-29T13:35:10;5.43;;;4.93;;
17404;SDS011;8820;54.604;18.226;2022-12-29T13:37:50;6.83;;;5.80;;
17404;SDS011;8820;54.604;18.226;2022-12-29T13:40:24;6.33;;;5.23;;
17404;SDS011;8820;54.604;18.226;2022-12-29T13:42:56;7.30;;;6.17;;
17404;SDS011;8820;54.604;18.226;2022-12-29T13:45:26;6.73;;;5.60;;
17404;SDS011;8820;54.604;18.226;2022-12-29T13:48:02;6.70;;;5.60;;
17404;SDS011;8820;54.604;18.226;2022-12-29T13:50:35;8.23;;;6.53;;
17404;SDS011;8820;54.604;18.226;2022-12-29T13:53:10;6.90;;;6.20;;
17404;SDS011;8820;54.604;18.226;2022-12-29T13:55:47;8.33;;;5.77;;
17404;SDS011;8820;54.604;18.226;2022-12-29T13:58:25;6.60;;;6.00;;
17404;SDS011;8820;54.604;18.226;2022-12-29T14:01:00;26.93;;;18.60;;
17404;SDS011;8820;54.604;18.226;2022-12-29T14:03:44;7.60;;;6.23;;
17404;SDS011;8820;54.604;18.226;2022-12-29T14:06:22;7.20;;;5.70;;
17404;SDS011;8820;54.604;18.226;2022-12-29T14:08:54;7.20;;;5.97;;
17404;SDS011;8820;54.604;18.226;2022-12-29T14:11:28;7.03;;;5.63;;
17404;SDS011;8820;54.604;18.226;2022-12-29T14:14:10;7.50;;;5.23;;
17404;SDS011;8820;54.604;18.226;2022-12-29T14:16:40;8.63;;;5.80;;
17404;SDS011;8820;54.604;18.226;2022-12-29T14:19:13;6.00;;;4.80;;
17404;SDS011;8820;54.604;18.226;2022-12-29T14:21:51;6.53;;;5.80;;
17404;SDS011;8820;54.604;18.226;2022-12-29T14:24:41;9.77;;;6.50;;
17404;SDS011;8820;54.604;18.226;2022-12-29T14:33:16;6.67;;;5.80;;
17404;SDS011;8820;54.604;18.226;2022-12-29T14:35:48;6.50;;;5.77;;
17404;SDS011;8820;54.604;18.226;2022-12-29T14:38:20;7.33;;;6.50;;
17404;SDS011;8820;54.604;18.226;2022-12-29T14:44:01;8.17;;;6.10;;
17404;SDS011;8820;54.604;18.226;2022-12-29T14:46:49;7.20;;;5.50;;
17404;SDS011;8820;54.604;18.226;2022-12-29T14:49:25;6.33;;;5.73;;
17404;SDS011;8820;54.604;18.226;2022-12-29T14:52:06;6.73;;;5.70;;
17404;SDS011;8820;54.604;18.226;2022-12-29T14:54:43;6.17;;;5.57;;
17404;SDS011;8820;54.604;18.226;2022-12-29T14:57:27;5.50;;;4.93;;
17404;SDS011;8820;54.604;18.226;2022-12-29T15:02:47;7.17;;;5.57;;
17404;SDS011;8820;54.604;18.226;2022-12-29T15:05:29;6.80;;;5.70;;
17404;SDS011;8820;54.604;18.226;2022-12-29T15:08:03;8.53;;;5.37;;
17404;SDS011;8820;54.604;18.226;2022-12-29T15:10:35;6.50;;;5.90;;
17404;SDS011;8820;54.604;18.226;2022-12-29T15:13:13;6.10;;;5.40;;
17404;SDS011;8820;54.604;18.226;2022-12-29T15:15:44;7.10;;;5.77;;
17404;SDS011;8820;54.604;18.226;2022-12-29T15:18:14;9.67;;;6.97;;
17404;SDS011;8820;54.604;18.226;2022-12-29T15:20:50;5.93;;;5.33;;
17404;SDS011;8820;54.604;18.226;2022-12-29T15:23:24;7.37;;;5.77;;
17404;SDS011;8820;54.604;18.226;2022-12-29T15:25:54;7.43;;;6.13;;
17404;SDS011;8820;54.604;18.226;2022-12-29T15:28:25;7.63;;;6.10;;
17404;SDS011;8820;54.604;18.226;2022-12-29T15:30:56;6.90;;;5.93;;
17404;SDS011;8820;54.604;18.226;2022-12-29T15:33:31;9.03;;;5.37;;
17404;SDS011;8820;54.604;18.226;2022-12-29T15:36:10;7.73;;;5.60;;
17404;SDS011;8820;54.604;18.226;2022-12-29T15:38:41;6.43;;;5.83;;
17404;SDS011;8820;54.604;18.226;2022-12-29T15:41:15;6.60;;;5.90;;
17404;SDS011;8820;54.604;18.226;2022-12-29T15:43:53;8.37;;;6.10;;